Sas van Gent, Netherlands
Current Conditions -  °F | °C
As of 12:55 PM on Saturday 25 Oct 2014 (Local Time) from EHFS Reporting Station
Broken Clouds Broken Clouds  
Wind Chill: 57°   Ceiling: 1900
Heat Index: 57°   Visibility: 6mi
Dew Point: 52°   Wind: 17mph
Humidity: 82%   Direction: 270°W
Pressure: 30.06"   Gusts: NA
Location:  51.23°N, 3.8°E
Report Text: EHFS 251055Z AUTO 27015KT 9999 FEW015/// BKN019/// BKN024///14/11 Q1018
Loading
Personal Weather Stations






























Interactive Weather Map
Tropical Storm Tracking
New forecast layout! Learn more

10-Day Weather Forecast

Advertisements
Track Severe Weather on mobile